Time;durP1;ratioP1;P1;durP2;ratioP2;P2;SDS_P1;SDS_P2;PMS_P1;PMS_P2;Temp;Humidity;BMP_temperature;BMP_pressure;BME280_temperature;BME280_humidity;BME280_pressure;Samples;Min_cycle;Max_cycle;Signal;HPM_P1;HPM_P2
2023/12/15 00:00:13;;;;;;;14.38;10.20;;;9.30;99.90;;;;;;4940523;28;20047;-48
2023/12/15 00:02:39;;;;;;;13.95;10.02;;;9.30;99.90;;;;;;4941817;28;20038;-48
2023/12/15 00:05:05;;;;;;;12.75;9.88;;;9.30;99.90;;;;;;4975980;28;20026;-49
2023/12/15 00:07:31;;;;;;;14.77;10.75;;;9.30;99.90;;;;;;4976099;28;20034;-48
2023/12/15 00:09:56;;;;;;;13.45;10.82;;;9.40;99.90;;;;;;4975882;28;20043;-49
2023/12/15 00:12:22;;;;;;;12.88;10.23;;;9.40;99.90;;;;;;4976255;28;20065;-49
2023/12/15 00:14:48;;;;;;;13.90;11.30;;;9.40;99.90;;;;;;4975949;28;20030;-48
2023/12/15 00:17:13;;;;;;;15.50;10.68;;;9.40;99.90;;;;;;4975756;28;20437;-49
2023/12/15 00:19:39;;;;;;;13.27;11.13;;;9.40;99.90;;;;;;4975903;28;20035;-49
2023/12/15 00:22:05;;;;;;;13.48;10.95;;;;;;;;;;4975844;28;20026;-49
2023/12/15 00:24:31;;;;;;;13.45;10.88;;;9.60;99.90;;;;;;4975820;28;20030;-49
2023/12/15 00:26:58;;;;;;;12.85;10.60;;;9.60;99.90;;;;;;4941426;28;20623;-48
2023/12/15 00:29:25;;;;;;;14.10;11.23;;;9.60;99.90;;;;;;4975366;28;20043;-49
2023/12/15 00:31:51;;;;;;;14.45;10.77;;;9.70;99.90;;;;;;4975486;28;20042;-49
2023/12/15 00:34:16;;;;;;;14.30;11.27;;;9.60;99.90;;;;;;4975530;28;20030;-49
2023/12/15 00:36:42;;;;;;;11.73;10.48;;;9.60;99.90;;;;;;4975318;28;20506;-48
2023/12/15 00:39:08;;;;;;;13.02;11.13;;;9.60;99.90;;;;;;4975401;28;20023;-49
2023/12/15 00:41:33;;;;;;;15.95;11.35;;;9.60;99.90;;;;;;4975580;28;20034;-49
2023/12/15 00:44:01;;;;;;;13.93;11.85;;;9.60;99.90;;;;;;4975284;28;20114;-48
2023/12/15 00:46:26;;;;;;;15.85;11.65;;;9.50;99.90;;;;;;4941503;28;20050;-49
2023/12/15 00:48:52;;;;;;;13.85;11.30;;;9.50;99.90;;;;;;4941074;28;20038;-49
2023/12/15 00:51:18;;;;;;;14.13;11.48;;;9.50;99.90;;;;;;4975036;28;20039;-48
2023/12/15 00:53:43;;;;;;;13.18;11.13;;;9.50;99.90;;;;;;4941033;28;20069;-48
2023/12/15 00:56:09;;;;;;;14.95;12.07;;;9.50;99.90;;;;;;4975563;28;20031;-49
2023/12/15 00:58:35;;;;;;;12.43;10.57;;;9.50;99.90;;;;;;4974752;28;20066;-49
2023/12/15 01:01:01;;;;;;;14.90;11.32;;;9.40;99.90;;;;;;4972972;28;20034;-48
2023/12/15 01:03:30;;;;;;;14.43;11.38;;;9.50;99.90;;;;;;4972796;28;20133;-48
2023/12/15 01:05:56;;;;;;;15.80;12.13;;;9.50;99.90;;;;;;4975032;28;20031;-48
2023/12/15 01:08:24;;;;;;;14.95;11.48;;;9.50;99.90;;;;;;4975038;28;20074;-49
2023/12/15 01:10:50;;;;;;;15.75;12.52;;;9.50;99.90;;;;;;4974764;28;20048;-49
2023/12/15 01:13:15;;;;;;;15.57;12.20;;;9.50;99.90;;;;;;4972570;28;20081;-51
2023/12/15 01:15:41;;;;;;;13.93;10.73;;;9.50;99.90;;;;;;4974870;28;20086;-49
2023/12/15 01:18:07;;;;;;;13.32;10.68;;;9.50;99.90;;;;;;4940739;28;20046;-49
2023/12/15 01:20:33;;;;;;;14.00;11.10;;;9.30;99.90;;;;;;4975015;28;20050;-49
2023/12/15 01:22:59;;;;;;;15.13;11.00;;;9.40;99.90;;;;;;4974440;28;20030;-49
2023/12/15 01:25:25;;;;;;;16.00;11.90;;;9.40;99.90;;;;;;4974694;28;20078;-48
2023/12/15 01:27:51;;;;;;;14.55;10.88;;;9.40;99.90;;;;;;4924540;28;20056;-48
2023/12/15 01:30:16;;;;;;;14.45;11.00;;;9.30;99.90;;;;;;4974860;28;20053;-48
2023/12/15 01:32:42;;;;;;;15.13;11.25;;;9.30;99.90;;;;;;4939757;28;20041;-48
2023/12/15 01:35:08;;;;;;;13.98;11.43;;;9.50;99.90;;;;;;4974457;28;20027;-48
2023/12/15 01:37:34;;;;;;;12.73;11.30;;;9.40;99.90;;;;;;4974655;28;20030;-49
2023/12/15 01:40:00;;;;;;;14.88;11.15;;;9.40;99.90;;;;;;4974412;28;20027;-48
2023/12/15 01:42:26;;;;;;;14.00;10.95;;;9.30;99.90;;;;;;4974064;28;20065;-48
2023/12/15 01:44:53;;;;;;;14.30;11.93;;;9.30;99.90;;;;;;4972030;28;20062;-48
2023/12/15 01:47:20;;;;;;;14.23;11.55;;;9.30;99.90;;;;;;4955956;28;20042;-48
2023/12/15 01:49:46;;;;;;;14.00;12.50;;;9.30;99.90;;;;;;4973942;28;20070;-48
2023/12/15 01:52:12;;;;;;;16.80;12.10;;;9.40;99.90;;;;;;4974170;28;20026;-49
2023/12/15 01:54:38;;;;;;;14.88;11.95;;;9.30;99.90;;;;;;4974334;28;20023;-49
2023/12/15 01:57:04;;;;;;;15.13;11.73;;;9.30;99.90;;;;;;4973985;28;20058;-49
2023/12/15 01:59:44;;;;;;;15.07;11.70;;;9.40;99.90;;;;;;4973623;28;20059;-48
2023/12/15 02:02:10;;;;;;;14.38;12.45;;;9.30;99.90;;;;;;4955707;28;20046;-48
2023/12/15 02:04:37;;;;;;;15.23;12.13;;;9.40;99.90;;;;;;4973653;28;20062;-49
2023/12/15 02:07:02;;;;;;;14.82;12.07;;;9.40;99.90;;;;;;4974008;28;20027;-49
2023/12/15 02:09:28;;;;;;;15.30;12.82;;;9.40;99.90;;;;;;4973793;28;20023;-48
2023/12/15 02:11:54;;;;;;;17.38;13.10;;;9.40;99.90;;;;;;4973799;28;20159;-49
2023/12/15 02:14:20;;;;;;;14.52;12.60;;;9.40;99.90;;;;;;4939469;28;20118;-48
2023/12/15 02:16:45;;;;;;;14.88;12.77;;;9.40;99.90;;;;;;4973438;28;20107;-48
2023/12/15 02:19:11;;;;;;;14.77;12.27;;;9.30;99.90;;;;;;4939391;28;20034;-49
2023/12/15 02:21:37;;;;;;;15.55;12.63;;;9.40;99.90;;;;;;4973990;28;20031;-48
2023/12/15 02:24:03;;;;;;;15.30;12.05;;;9.30;99.90;;;;;;4923318;28;20038;-49
2023/12/15 02:26:28;;;;;;;18.58;13.70;;;9.40;99.90;;;;;;4973739;28;20114;-48
2023/12/15 02:28:54;;;;;;;17.88;14.18;;;9.30;99.90;;;;;;4973778;28;20394;-48
2023/12/15 02:31:21;;;;;;;17.70;13.18;;;9.30;99.90;;;;;;4973373;28;20042;-49
2023/12/15 02:33:48;;;;;;;15.82;11.93;;;9.30;99.90;;;;;;4973243;28;20110;-49
2023/12/15 02:36:21;;;;;;;16.83;13.68;;;9.20;99.90;;;;;;4972430;28;20022;-49
2023/12/15 02:38:47;;;;;;;16.58;13.20;;;9.20;99.90;;;;;;4973142;28;20065;-48
2023/12/15 02:41:12;;;;;;;17.23;13.35;;;9.20;99.90;;;;;;4971252;28;20054;-48
2023/12/15 02:43:38;;;;;;;19.30;14.00;;;9.10;99.90;;;;;;4971977;28;20054;-48
2023/12/15 02:46:05;;;;;;;16.83;12.98;;;9.20;99.90;;;;;;4973448;28;20382;-48
2023/12/15 02:48:31;;;;;;;18.30;13.77;;;9.10;99.90;;;;;;4972531;28;20545;-47
2023/12/15 02:50:57;;;;;;;20.02;13.68;;;9.00;99.90;;;;;;4906380;28;20051;-48
2023/12/15 02:53:23;;;;;;;18.13;13.65;;;9.10;99.90;;;;;;4906270;28;20046;-49
2023/12/15 02:55:49;;;;;;;15.73;12.02;;;9.20;99.90;;;;;;4972748;28;20033;-48
2023/12/15 02:58:15;;;;;;;19.95;14.65;;;9.00;99.90;;;;;;4973299;28;20043;-49
2023/12/15 03:00:41;;;;;;;19.58;14.05;;;9.10;99.90;;;;;;4972997;28;20113;-49
2023/12/15 03:03:07;;;;;;;17.73;13.88;;;9.00;99.90;;;;;;4973029;28;20460;-48
2023/12/15 03:05:33;;;;;;;15.35;12.13;;;9.10;99.90;;;;;;4972937;28;20030;-49
2023/12/15 03:07:58;;;;;;;17.17;14.07;;;9.00;99.90;;;;;;4973139;28;20033;-49
2023/12/15 03:10:24;;;;;;;15.98;12.60;;;;;;;;;;4973014;28;20466;-48
2023/12/15 03:12:50;;;;;;;16.48;12.60;;;9.10;99.90;;;;;;4923270;28;20115;-49
2023/12/15 03:15:16;;;;;;;16.40;13.43;;;9.30;99.90;;;;;;4973206;28;20449;-49
2023/12/15 03:17:42;;;;;;;16.90;13.15;;;9.10;99.90;;;;;;4923093;28;20039;-49
2023/12/15 03:20:08;;;;;;;18.10;13.65;;;9.10;99.90;;;;;;4972853;28;20082;-49
2023/12/15 03:22:33;;;;;;;17.52;13.27;;;9.10;99.90;;;;;;4922884;28;20039;-48
2023/12/15 03:24:59;;;;;;;20.23;13.40;;;9.00;99.90;;;;;;4972802;28;20034;-48
2023/12/15 03:27:25;;;;;;;17.40;13.93;;;9.10;99.90;;;;;;4973132;28;20026;-49
2023/12/15 03:29:51;;;;;;;18.35;13.93;;;9.10;99.90;;;;;;4972800;28;20089;-50
2023/12/15 03:32:16;;;;;;;17.70;13.25;;;9.10;99.90;;;;;;4972926;28;20356;-49
2023/12/15 03:34:42;;;;;;;19.27;14.35;;;9.10;99.90;;;;;;4972751;28;20054;-49
2023/12/15 03:37:10;;;;;;;16.88;12.85;;;9.10;99.90;;;;;;4922620;28;20035;-49
2023/12/15 03:39:36;;;;;;;16.40;13.35;;;9.10;99.90;;;;;;4970731;28;20038;-48
2023/12/15 03:42:06;;;;;;;16.85;13.45;;;9.10;99.90;;;;;;4973151;28;20154;-48
2023/12/15 03:44:33;;;;;;;15.63;12.45;;;9.20;99.90;;;;;;4972770;28;20081;-48
2023/12/15 03:46:59;;;;;;;16.05;12.90;;;9.10;99.90;;;;;;4972552;28;20110;-48
2023/12/15 03:49:25;;;;;;;17.23;12.43;;;9.10;99.90;;;;;;4972750;28;20399;-48
2023/12/15 03:51:51;;;;;;;18.05;13.43;;;9.10;99.90;;;;;;4972701;28;20034;-48
2023/12/15 03:54:16;;;;;;;18.40;14.20;;;9.10;99.90;;;;;;4972917;28;20482;-48
2023/12/15 03:56:42;;;;;;;17.40;13.85;;;9.20;99.90;;;;;;4976103;28;20027;-48
2023/12/15 03:59:08;;;;;;;18.67;13.27;;;9.20;99.90;;;;;;4925841;28;20137;-48
2023/12/15 04:01:34;;;;;;;16.88;14.13;;;9.20;99.90;;;;;;4976480;28;20058;-48
2023/12/15 04:03:59;;;;;;;18.70;13.65;;;9.20;99.90;;;;;;4973960;28;20094;-49
2023/12/15 04:06:25;;;;;;;18.88;13.95;;;9.20;99.90;;;;;;4976250;28;20034;-48
2023/12/15 04:08:51;;;;;;;20.30;13.93;;;9.20;99.90;;;;;;4976339;28;20115;-48
2023/12/15 04:11:17;;;;;;;17.67;13.48;;;9.20;99.90;;;;;;4973696;28;20047;-48
2023/12/15 04:13:43;;;;;;;17.75;12.77;;;9.30;99.90;;;;;;4973821;28;20042;-49
2023/12/15 04:16:09;;;;;;;19.42;13.57;;;9.20;99.90;;;;;;4975596;28;20027;-48
2023/12/15 04:18:35;;;;;;;20.60;14.00;;;9.20;99.90;;;;;;4976077;28;20022;-49
2023/12/15 04:21:03;;;;;;;19.75;14.48;;;9.20;99.90;;;;;;4925859;28;20104;-48
2023/12/15 04:23:29;;;;;;;17.17;11.82;;;9.30;99.90;;;;;;4975768;28;20474;-49
2023/12/15 04:25:58;;;;;;;18.55;13.98;;;9.20;99.90;;;;;;4975608;28;20035;-48
2023/12/15 04:28:25;;;;;;;19.23;13.85;;;9.20;99.90;;;;;;4975896;28;20363;-48
2023/12/15 04:30:51;;;;;;;22.52;14.30;;;9.30;99.90;;;;;;4976003;28;20509;-48
2023/12/15 04:33:17;;;;;;;19.75;14.50;;;9.30;99.90;;;;;;4975612;28;20134;-49
2023/12/15 04:35:42;;;;;;;16.55;12.70;;;9.30;99.90;;;;;;4975448;28;20117;-48
2023/12/15 04:38:09;;;;;;;22.77;17.90;;;9.20;99.90;;;;;;4975448;28;20037;-48
2023/12/15 04:40:34;;;;;;;21.20;13.48;;;9.20;99.90;;;;;;4975354;28;20035;-49
2023/12/15 04:43:00;;;;;;;21.70;14.30;;;9.20;99.90;;;;;;4975663;28;20037;-48
2023/12/15 04:45:26;;;;;;;18.98;12.85;;;9.20;99.90;;;;;;4925379;28;20402;-48
2023/12/15 04:47:54;;;;;;;19.25;13.77;;;9.20;99.90;;;;;;4975535;28;20023;-48
2023/12/15 04:50:20;;;;;;;17.88;13.10;;;9.10;99.90;;;;;;4975216;28;20047;-48
2023/12/15 04:52:46;;;;;;;17.55;13.25;;;9.20;99.90;;;;;;4975489;28;20057;-48
2023/12/15 04:55:12;;;;;;;18.90;12.82;;;9.10;99.90;;;;;;4925491;28;20042;-49
2023/12/15 04:57:38;;;;;;;19.25;13.88;;;9.10;99.90;;;;;;4975470;28;20034;-49
2023/12/15 05:00:05;;;;;;;16.88;13.10;;;9.20;99.90;;;;;;4975005;28;20056;-48
2023/12/15 05:02:30;;;;;;;19.25;13.45;;;9.20;99.90;;;;;;4925058;28;20097;-49
2023/12/15 05:04:56;;;;;;;16.13;12.85;;;9.30;99.90;;;;;;4975169;28;20031;-48
2023/12/15 05:07:22;;;;;;;18.60;13.40;;;9.30;99.90;;;;;;4974203;28;20062;-48
2023/12/15 05:09:48;;;;;;;25.13;15.27;;;9.30;99.90;;;;;;4975041;28;20038;-48
2023/12/15 05:12:13;;;;;;;19.05;13.77;;;9.30;99.90;;;;;;4975112;28;20018;-49
2023/12/15 05:14:39;;;;;;;18.65;13.80;;;9.20;99.90;;;;;;4972572;28;20081;-48
2023/12/15 05:17:05;;;;;;;18.20;13.88;;;9.20;99.90;;;;;;4925064;28;20042;-48
2023/12/15 05:19:30;;;;;;;20.88;14.23;;;9.20;99.90;;;;;;4974768;28;20046;-48
2023/12/15 05:21:56;;;;;;;19.45;14.48;;;9.20;99.90;;;;;;4924727;28;20092;-48
2023/12/15 05:24:22;;;;;;;18.23;13.30;;;9.20;99.90;;;;;;4974559;28;20027;-48
2023/12/15 05:26:48;;;;;;;21.33;14.65;;;9.20;99.90;;;;;;4974697;28;20023;-49
2023/12/15 05:29:14;;;;;;;21.35;14.30;;;9.10;99.90;;;;;;4973661;28;20441;-48
2023/12/15 05:31:43;;;;;;;19.08;14.30;;;9.10;99.90;;;;;;4940348;28;20049;-48
2023/12/15 05:34:09;;;;;;;21.52;14.20;;;;;;;;;;4974489;28;20037;-48
2023/12/15 05:36:35;;;;;;;19.23;14.55;;;;;;;;;;4974594;28;20367;-49
2023/12/15 05:39:01;;;;;;;18.67;13.68;;;;;;;;;;4973788;28;20027;-49
2023/12/15 05:41:27;;;;;;;21.52;14.15;;;;;;;;;;4940429;28;20592;-48
2023/12/15 05:43:54;;;;;;;16.85;13.23;;;;;;;;;;4974520;28;20027;-48
2023/12/15 05:46:20;;;;;;;22.02;14.30;;;;;;;;;;4974525;28;20027;-49
2023/12/15 05:48:46;;;;;;;17.63;13.57;;;;;;;;;;4973863;28;20065;-48
2023/12/15 05:51:12;;;;;;;18.65;14.68;;;;;;;;;;4974153;28;20031;-48
2023/12/15 05:53:38;;;;;;;20.27;13.40;;;9.20;99.90;;;;;;4939732;28;20094;-48
2023/12/15 05:56:04;;;;;;;35.47;14.38;;;9.20;99.90;;;;;;4974401;28;20118;-48
2023/12/15 05:58:30;;;;;;;23.58;15.23;;;9.10;99.90;;;;;;4921605;28;20066;-49
2023/12/15 06:00:56;;;;;;;21.35;14.52;;;9.10;99.90;;;;;;4954998;29;20061;-48
2023/12/15 06:03:22;;;;;;;24.45;16.40;;;;;;;;;;4972378;28;20031;-48
2023/12/15 06:05:47;;;;;;;22.65;15.73;;;8.90;99.90;;;;;;4973767;28;20026;-49
2023/12/15 06:08:14;;;;;;;21.55;15.32;;;;;;;;;;4973900;28;20031;-49
2023/12/15 06:10:41;;;;;;;20.85;15.93;;;;;;;;;;4973933;28;20039;-48
2023/12/15 06:13:07;;;;;;;20.20;16.17;;;;;;;;;;4973607;28;20034;-49
2023/12/15 06:15:33;;;;;;;19.83;15.10;;;;;;;;;;4973646;28;20022;-49
2023/12/15 06:18:00;;;;;;;21.27;16.05;;;;;;;;;;4973811;28;20051;-49
2023/12/15 06:20:26;;;;;;;20.52;15.77;;;;;;;;;;4973682;28;20035;-48
2023/12/15 06:22:53;;;;;;;20.80;15.65;;;;;;;;;;4932319;29;20775;-48
2023/12/15 06:25:19;;;;;;;22.45;16.77;;;;;;;;;;4932820;29;20187;-48
2023/12/15 06:27:45;;;;;;;19.38;15.35;;;;;;;;;;4932570;29;20039;-49
2023/12/15 06:30:11;;;;;;;20.23;15.35;;;;;;;;;;4931970;29;20043;-48
2023/12/15 06:32:37;;;;;;;24.65;18.02;;;9.10;99.90;;;;;;4932487;29;20099;-49
2023/12/15 06:35:05;;;;;;;21.58;16.20;;;;;;;;;;4900507;29;20091;-49
2023/12/15 06:37:31;;;;;;;22.75;16.85;;;9.10;99.90;;;;;;4931504;29;20610;-49
2023/12/15 06:39:56;;;;;;;24.20;17.42;;;9.10;99.90;;;;;;4928385;29;20038;-49
2023/12/15 06:42:22;;;;;;;26.58;17.98;;;9.30;99.90;;;;;;4908504;29;20076;-49
2023/12/15 06:44:48;;;;;;;24.13;17.30;;;9.10;99.90;;;;;;4924590;29;20039;-49
2023/12/15 06:47:13;;;;;;;23.73;17.88;;;9.20;99.90;;;;;;4898658;29;20144;-49
2023/12/15 06:49:39;;;;;;;22.50;17.45;;;9.00;99.90;;;;;;4924728;29;20135;-49
2023/12/15 06:52:05;;;;;;;23.50;16.58;;;9.00;99.90;;;;;;4924046;29;20492;-49
2023/12/15 06:54:31;;;;;;;21.85;16.02;;;9.00;99.90;;;;;;4932907;28;20042;-48
2023/12/15 06:56:57;;;;;;;24.08;17.67;;;9.00;99.90;;;;;;4965177;28;20034;-48
2023/12/15 06:59:22;;;;;;;20.20;15.40;;;9.00;99.90;;;;;;4934423;28;20499;-49
2023/12/15 07:01:49;;;;;;;23.15;17.02;;;;;;;;;;4928028;28;20054;-48
2023/12/15 07:04:14;;;;;;;22.52;17.27;;;9.00;99.90;;;;;;4969629;28;20031;-48
2023/12/15 07:06:40;;;;;;;22.55;16.95;;;;;;;;;;4961259;28;20081;-48
2023/12/15 07:09:11;;;;;;;26.35;20.20;;;;;;;;;;4953314;28;20041;-49
2023/12/15 07:11:39;;;;;;;26.05;19.77;;;;;;;;;;4953321;28;20612;-49
2023/12/15 07:14:05;;;;;;;31.08;19.45;;;;;;;;;;4963455;28;20493;-48
2023/12/15 07:16:31;;;;;;;21.52;17.77;;;8.90;99.90;;;;;;4928698;28;20514;-48
2023/12/15 07:18:56;;;;;;;23.17;16.98;;;9.00;99.90;;;;;;4962065;28;20023;-48
2023/12/15 07:21:22;;;;;;;26.25;20.65;;;9.00;99.90;;;;;;4964346;28;20081;-48
2023/12/15 07:23:48;;;;;;;22.55;17.83;;;9.10;99.90;;;;;;4954222;28;20035;-49
2023/12/15 07:26:14;;;;;;;29.67;24.85;;;9.20;99.90;;;;;;4972402;28;20433;-48
2023/12/15 07:28:39;;;;;;;24.88;18.50;;;9.40;99.90;;;;;;4973060;28;20107;-47
2023/12/15 07:31:05;;;;;;;24.88;19.35;;;9.60;99.90;;;;;;4975047;28;20514;-48
2023/12/15 07:33:31;;;;;;;26.25;21.13;;;9.70;99.90;;;;;;4942463;28;20117;-48
2023/12/15 07:35:57;;;;;;;22.15;17.38;;;9.70;99.90;;;;;;4976141;28;20027;-48
2023/12/15 07:38:22;;;;;;;33.25;24.55;;;9.60;99.90;;;;;;4958367;28;20046;-48
2023/12/15 07:40:53;;;;;;;43.72;31.42;;;9.50;99.90;;;;;;4976077;28;20058;-49
2023/12/15 07:43:19;;;;;;;39.65;30.10;;;9.40;99.90;;;;;;4975805;28;20406;-48
2023/12/15 07:45:45;;;;;;;76.30;53.33;;;9.40;99.90;;;;;;4976829;28;20059;-49
2023/12/15 07:48:11;;;;;;;48.28;34.80;;;9.50;99.90;;;;;;4976311;28;20042;-49
2023/12/15 07:50:37;;;;;;;331.70;188.07;;;9.60;99.90;;;;;;4974032;28;20051;-48
2023/12/15 07:53:03;;;;;;;216.15;107.80;;;9.70;99.90;;;;;;4938151;28;20043;-49
2023/12/15 07:55:28;;;;;;;321.25;153.50;;;9.70;99.90;;;;;;4949661;28;20038;-49
2023/12/15 07:57:54;;;;;;;224.55;103.32;;;9.70;99.90;;;;;;4976441;28;20030;-48
2023/12/15 08:00:20;;;;;;;159.52;77.95;;;9.60;99.90;;;;;;4925687;28;20065;-48
2023/12/15 08:02:45;;;;;;;45.03;25.60;;;9.60;99.90;;;;;;4973348;28;20057;-49
2023/12/15 08:05:11;;;;;;;118.25;54.00;;;9.50;99.90;;;;;;4975513;28;20027;-49
2023/12/15 08:07:37;;;;;;;148.25;64.57;;;9.50;99.90;;;;;;4975465;28;20027;-48
2023/12/15 08:10:03;;;;;;;43.28;25.95;;;9.40;99.90;;;;;;4975880;28;20034;-48
2023/12/15 08:12:28;;;;;;;78.20;39.90;;;9.40;99.90;;;;;;4941086;28;20565;-46
2023/12/15 08:14:54;;;;;;;84.60;42.75;;;9.30;99.90;;;;;;4975975;28;20027;-47
2023/12/15 08:17:20;;;;;;;97.50;47.67;;;9.30;99.90;;;;;;4975505;28;20034;-47
2023/12/15 08:19:46;;;;;;;34.75;22.60;;;9.40;99.90;;;;;;4975738;28;20054;-47
2023/12/15 08:22:11;;;;;;;83.82;43.03;;;9.40;99.90;;;;;;4925665;28;20046;-47
2023/12/15 08:24:37;;;;;;;35.17;22.42;;;9.50;99.90;;;;;;4941608;28;20043;-48
2023/12/15 08:27:04;;;;;;;62.53;33.20;;;9.40;99.90;;;;;;4941669;28;20043;-48
2023/12/15 08:29:29;;;;;;;39.78;23.65;;;9.50;99.90;;;;;;4925583;28;20475;-47
2023/12/15 08:31:55;;;;;;;40.28;23.75;;;9.40;99.90;;;;;;4975747;28;20085;-48
2023/12/15 08:34:21;;;;;;;72.85;38.08;;;9.50;99.90;;;;;;4975585;28;20027;-48
2023/12/15 08:36:46;;;;;;;133.43;62.28;;;9.40;99.90;;;;;;4975890;28;20034;-47
2023/12/15 08:39:12;;;;;;;48.38;25.27;;;9.50;99.90;;;;;;4975478;28;20027;-48
2023/12/15 08:41:38;;;;;;;132.27;64.80;;;9.40;99.90;;;;;;4938857;28;20050;-48
2023/12/15 08:44:04;;;;;;;55.30;31.63;;;9.60;99.90;;;;;;4973884;28;20066;-47
2023/12/15 08:46:31;;;;;;;69.80;38.88;;;9.60;99.90;;;;;;4939967;28;20052;-47
2023/12/15 08:48:56;;;;;;;84.00;43.58;;;9.60;99.90;;;;;;4974785;28;20062;-49
2023/12/15 08:51:22;;;;;;;34.28;23.17;;;9.60;99.90;;;;;;4923860;28;20129;-48
2023/12/15 08:53:48;;;;;;;122.00;61.75;;;9.60;99.90;;;;;;4974105;28;20034;-48
2023/12/15 08:56:14;;;;;;;46.25;28.90;;;9.60;99.90;;;;;;4914203;29;20031;-47
2023/12/15 08:58:39;;;;;;;57.67;30.23;;;9.60;99.90;;;;;;4914410;29;20088;-48
2023/12/15 09:01:05;;;;;;;34.30;24.35;;;9.60;99.90;;;;;;4872870;29;20060;-47
2023/12/15 09:03:31;;;;;;;24.40;16.40;;;9.60;99.90;;;;;;4914421;29;20122;-46
2023/12/15 09:05:56;;;;;;;37.25;24.20;;;9.50;99.90;;;;;;4913983;29;20055;-48
2023/12/15 09:08:22;;;;;;;31.73;22.55;;;9.50;99.90;;;;;;4902382;29;20489;-48
2023/12/15 09:10:50;;;;;;;30.05;19.92;;;9.50;99.90;;;;;;4909037;29;20048;-47
2023/12/15 09:13:17;;;;;;;33.58;23.30;;;9.50;99.90;;;;;;4881410;29;20079;-48
2023/12/15 09:15:43;;;;;;;36.03;23.33;;;9.50;99.90;;;;;;4902648;29;20427;-48
2023/12/15 09:18:09;;;;;;;18.00;14.10;;;9.60;99.90;;;;;;4908020;29;20051;-47
2023/12/15 09:20:35;;;;;;;28.73;20.52;;;9.50;99.90;;;;;;4906288;29;20376;-48
2023/12/15 09:23:06;;;;;;;37.75;23.48;;;9.60;99.90;;;;;;4906099;29;20440;-47
2023/12/15 09:25:32;;;;;;;47.63;31.05;;;9.50;99.90;;;;;;4893331;29;20044;-47
2023/12/15 09:27:58;;;;;;;23.25;17.02;;;;;;;;;;4954053;28;20043;-48
2023/12/15 09:30:24;;;;;;;19.73;15.85;;;;;;;;;;4959617;28;20047;-47
2023/12/15 09:32:50;;;;;;;22.50;17.50;;;;;;;;;;4924222;28;20046;-47
2023/12/15 09:35:17;;;;;;;21.23;16.38;;;9.30;99.90;;;;;;4964565;28;20035;-47
2023/12/15 09:37:43;;;;;;;25.95;18.42;;;9.50;99.90;;;;;;4958281;28;20383;-47
2023/12/15 09:40:10;;;;;;;20.98;16.05;;;9.70;99.90;;;;;;4961554;28;20126;-47
2023/12/15 09:42:35;;;;;;;21.27;15.52;;;9.90;99.90;;;;;;4942856;28;20039;-47
2023/12/15 09:45:01;;;;;;;21.92;15.18;;;9.60;99.90;;;;;;4963174;28;20153;-47
2023/12/15 09:47:29;;;;;;;25.58;18.80;;;9.40;99.90;;;;;;4958099;28;20113;-47
2023/12/15 09:50:01;;;;;;;22.23;17.13;;;9.60;99.90;;;;;;4940666;29;20162;-47
2023/12/15 09:52:30;;;;;;;23.08;18.65;;;9.60;99.90;;;;;;4960258;28;20034;-47
2023/12/15 09:54:56;;;;;;;23.13;19.80;;;9.70;99.90;;;;;;4966105;28;20111;-49
2023/12/15 09:57:23;;;;;;;22.20;17.10;;;9.60;99.90;;;;;;4960901;28;20126;-49
2023/12/15 09:59:49;;;;;;;20.25;16.50;;;9.70;99.90;;;;;;4967183;28;20142;-48
2023/12/15 10:02:15;;;;;;;21.15;16.98;;;9.80;99.90;;;;;;4972524;28;20030;-46
2023/12/15 10:04:41;;;;;;;19.85;17.30;;;9.90;99.90;;;;;;4974614;28;20037;-51
2023/12/15 10:07:06;;;;;;;21.25;16.95;;;9.90;99.90;;;;;;4972247;28;20023;-46
2023/12/15 10:09:32;;;;;;;20.45;15.30;;;10.10;99.90;;;;;;4974470;28;20027;-47
2023/12/15 10:11:59;;;;;;;21.13;16.42;;;10.10;99.90;;;;;;4972783;28;20089;-47
2023/12/15 10:14:25;;;;;;;22.25;16.58;;;10.20;99.90;;;;;;4973535;28;20030;-48
2023/12/15 10:16:51;;;;;;;23.20;16.17;;;;;;;;;;4937774;28;20134;-51
2023/12/15 10:19:17;;;;;;;19.02;14.95;;;10.40;99.90;;;;;;4966162;28;20034;-46
2023/12/15 10:21:43;;;;;;;16.45;14.50;;;10.70;99.90;;;;;;4967843;28;20035;-47
2023/12/15 10:24:23;;;;;;;25.35;22.05;;;10.70;99.90;;;;;;4971101;28;20027;-46
2023/12/15 10:26:50;;;;;;;15.75;12.65;;;10.90;99.90;;;;;;4969564;28;20033;-47
2023/12/15 10:29:18;;;;;;;22.00;16.88;;;11.00;99.90;;;;;;4968504;28;20031;-47
2023/12/15 10:31:45;;;;;;;19.25;14.95;;;;;;;;;;4959659;28;20039;-47
2023/12/15 10:34:13;;;;;;;20.00;15.20;;;11.30;99.90;;;;;;4936973;28;20407;-47
2023/12/15 10:36:44;;;;;;;18.60;14.30;;;;;;;;;;4968138;28;20038;-47
2023/12/15 10:39:14;;;;;;;16.08;13.35;;;12.00;99.90;;;;;;4970873;28;20031;-47
2023/12/15 10:41:40;;;;;;;18.23;13.73;;;12.10;99.90;;;;;;4967565;28;20427;-47
2023/12/15 10:44:07;;;;;;;16.73;14.07;;;12.50;99.90;;;;;;4951408;28;20049;-46
2023/12/15 10:46:34;;;;;;;22.33;14.80;;;12.50;99.90;;;;;;4927503;29;20122;-48
2023/12/15 10:49:01;;;;;;;17.27;13.23;;;12.80;99.90;;;;;;4930207;29;20036;-47
2023/12/15 10:51:28;;;;;;;16.55;13.27;;;;;;;;;;4927236;29;20050;-47
2023/12/15 10:53:54;;;;;;;18.75;15.05;;;;;;;;;;4925625;29;20043;-47
2023/12/15 10:56:22;;;;;;;14.70;12.48;;;;;;;;;;4908941;29;20040;-47
2023/12/15 10:58:48;;;;;;;17.67;13.90;;;;;;;;;;4915154;29;20067;-47
2023/12/15 11:01:16;;;;;;;18.33;14.90;;;;;;;;;;4919099;29;20040;-47
2023/12/15 11:03:42;;;;;;;17.02;13.18;;;;;;;;;;4924040;29;20039;-47
2023/12/15 11:06:09;;;;;;;13.80;8.75;;;;;;;;;;4929240;29;20500;-47
2023/12/15 11:08:35;;;;;;;21.83;16.38;;;;;;;;;;4915921;29;20036;-48
2023/12/15 11:11:07;;;;;;;18.88;14.48;;;;;;;;;;4926294;29;20052;-46
2023/12/15 11:13:49;;;;;;;23.10;15.80;;;;;;;;;;4913185;29;20043;-48
2023/12/15 11:16:17;;;;;;;20.05;15.10;;;;;;;;;;4912743;29;20050;-47
2023/12/15 11:18:43;;;;;;;20.95;15.55;;;;;;;;;;4963240;28;20046;-47
2023/12/15 11:21:10;;;;;;;22.58;16.45;;;;;;;;;;4969184;28;20070;-47
2023/12/15 11:24:00;;;;;;;18.35;15.30;;;;;;;;;;4963007;28;20038;-48
2023/12/15 11:26:29;;;;;;;17.77;14.25;;;;;;;;;;4960059;28;20054;-48
2023/12/15 11:29:08;;;;;;;20.70;15.13;;;9.90;99.90;;;;;;4969779;28;20490;-49
2023/12/15 11:31:35;;;;;;;20.25;13.07;;;9.90;99.90;;;;;;4924301;28;20049;-48
2023/12/15 11:34:03;;;;;;;18.13;14.80;;;9.80;99.90;;;;;;4951014;28;20038;-47
2023/12/15 11:36:30;;;;;;;20.23;15.18;;;;;;;;;;4961828;28;20090;-48
2023/12/15 11:38:58;;;;;;;16.00;11.32;;;9.70;99.90;;;;;;4960475;28;20515;-48
2023/12/15 11:41:24;;;;;;;18.83;14.90;;;;;;;;;;4966901;28;20131;-47
2023/12/15 11:43:51;;;;;;;15.70;10.95;;;;;;;;;;4962716;28;20561;-48
2023/12/15 11:46:20;;;;;;;18.48;14.63;;;;;;;;;;4967400;28;20046;-47
2023/12/15 11:48:46;;;;;;;28.13;17.92;;;;;;;;;;4963909;28;20034;-46
2023/12/15 11:51:12;;;;;;;17.30;13.68;;;;;;;;;;4970910;28;20051;-47
2023/12/15 11:53:47;;;;;;;20.80;13.68;;;;;;;;;;4962140;28;20093;-47
2023/12/15 11:56:13;;;;;;;15.35;12.32;;;;;;;;;;4961469;28;20027;-47
2023/12/15 11:58:39;;;;;;;19.55;15.25;;;;;;;;;;4953883;28;20086;-47
2023/12/15 12:01:06;;;;;;;17.65;13.98;;;;;;;;;;4961155;28;20027;-47
2023/12/15 12:03:32;;;;;;;18.42;14.18;;;;;;;;;;4967474;28;20117;-47
2023/12/15 12:05:59;;;;;;;29.15;17.75;;;;;;;;;;4965529;28;20540;-47
2023/12/15 12:08:25;;;;;;;19.73;14.95;;;;;;;;;;4964902;28;20023;-47
2023/12/15 12:10:57;;;;;;;20.10;15.93;;;;;;;;;;4962783;28;20043;-47
2023/12/15 12:13:31;;;;;;;28.02;20.55;;;;;;;;;;4963071;28;20058;-46
2023/12/15 12:15:57;;;;;;;20.00;13.95;;;;;;;;;;4962983;28;20497;-47
2023/12/15 12:18:24;;;;;;;22.20;17.00;;;;;;;;;;4965052;28;20101;-47
2023/12/15 12:20:57;;;;;;;18.67;11.10;;;;;;;;;;4971013;28;20038;-47
2023/12/15 12:23:24;;;;;;;23.52;16.60;;;;;;;;;;4967676;28;20093;-47
2023/12/15 12:25:50;;;;;;;22.92;17.42;;;9.10;99.90;;;;;;4963258;28;20035;-46
2023/12/15 12:28:19;;;;;;;26.48;18.67;;;9.10;99.90;;;;;;4967865;28;20151;-46
2023/12/15 12:30:45;;;;;;;27.65;19.27;;;9.20;99.90;;;;;;4941121;28;20137;-46
2023/12/15 12:33:11;;;;;;;25.45;19.23;;;9.10;99.90;;;;;;4965629;28;20070;-46
2023/12/15 12:35:38;;;;;;;19.27;14.63;;;9.20;99.90;;;;;;4946995;28;20122;-48
2023/12/15 12:38:04;;;;;;;21.40;15.02;;;9.30;99.90;;;;;;4966170;28;20037;-46
2023/12/15 12:40:30;;;;;;;31.17;18.83;;;9.00;99.90;;;;;;4966217;28;20390;-48
2023/12/15 12:42:58;;;;;;;26.38;20.25;;;9.00;99.90;;;;;;4963069;28;20051;-48
2023/12/15 12:45:24;;;;;;;18.10;12.45;;;9.00;99.90;;;;;;4959277;28;20090;-48
2023/12/15 12:47:50;;;;;;;24.40;17.42;;;8.80;99.90;;;;;;4967138;28;20031;-48
2023/12/15 12:50:17;;;;;;;21.42;16.38;;;8.70;99.90;;;;;;4964642;28;20049;-48